createdAt,value
2023-03-21T00:01:04.954Z,62.06
2023-03-21T00:03:35.396Z,61.99
2023-03-21T00:06:07.561Z,62.08
2023-03-21T00:08:35.675Z,62.08
2023-03-21T00:11:05.940Z,62.21
2023-03-21T00:13:38.474Z,62.35
2023-03-21T00:16:13.647Z,62.32
2023-03-21T00:18:48.808Z,62.15
2023-03-21T00:24:08.038Z,61.97
2023-03-21T00:26:38.208Z,61.92
2023-03-21T00:29:06.427Z,61.92
2023-03-21T00:31:34.543Z,62.26
2023-03-21T00:34:03.962Z,62.22
2023-03-21T00:36:32.503Z,62.24
2023-03-21T00:39:01.143Z,62.28
2023-03-21T00:41:41.900Z,62.21
2023-03-21T00:44:13.747Z,62.24
2023-03-21T00:46:51.703Z,62.39
2023-03-21T00:49:27.693Z,62.28
2023-03-21T00:51:59.489Z,62.18
2023-03-21T00:54:33.495Z,62.13
2023-03-21T00:57:03.082Z,62.35
2023-03-21T00:59:31.677Z,62.26
2023-03-21T01:02:00.841Z,62.24
2023-03-21T01:04:30.339Z,62.27
2023-03-21T01:06:58.370Z,62.35
2023-03-21T01:09:26.579Z,62.33
2023-03-21T01:11:54.683Z,62.64
2023-03-21T01:14:24.391Z,62.45
2023-03-21T01:16:54.988Z,62.44
2023-03-21T01:19:40.990Z,62.27
2023-03-21T01:22:17.666Z,62.56
2023-03-21T01:24:53.107Z,62.83
2023-03-21T01:27:23.282Z,62.80
2023-03-21T01:29:52.075Z,62.89
2023-03-21T01:32:20.352Z,62.66
2023-03-21T01:34:48.433Z,62.41
2023-03-21T01:37:19.139Z,62.92
2023-03-21T01:39:50.108Z,63.08
2023-03-21T01:42:18.341Z,62.75
2023-03-21T01:44:57.295Z,62.48
2023-03-21T01:47:27.829Z,62.55
2023-03-21T01:50:07.285Z,62.60
2023-03-21T01:52:50.887Z,62.49
2023-03-21T01:55:27.166Z,62.59
2023-03-21T01:58:06.371Z,62.65
2023-03-21T02:00:52.365Z,62.34
2023-03-21T02:03:38.262Z,62.34
2023-03-21T02:06:38.226Z,62.28
2023-03-21T02:09:19.660Z,62.60
2023-03-21T02:11:48.056Z,62.55
2023-03-21T02:14:26.955Z,62.67
2023-03-21T02:17:23.542Z,62.73
2023-03-21T02:20:25.431Z,62.60
2023-03-21T02:23:27.653Z,62.61
2023-03-21T02:26:39.530Z,62.46
2023-03-21T02:29:24.789Z,62.40
2023-03-21T02:32:18.095Z,62.44
2023-03-21T02:35:39.153Z,62.60
2023-03-21T02:38:17.357Z,62.63
2023-03-21T02:40:50.014Z,62.92
2023-03-21T02:43:29.424Z,62.67
2023-03-21T02:46:03.066Z,62.74
2023-03-21T02:48:49.874Z,62.80
2023-03-21T02:51:22.503Z,62.79
2023-03-21T02:54:24.601Z,62.60
2023-03-21T02:56:47.156Z,62.67
2023-03-21T02:59:17.067Z,62.98
2023-03-21T03:01:45.935Z,62.87
2023-03-21T03:04:22.350Z,62.74
2023-03-21T03:07:11.410Z,62.82
2023-03-21T03:09:57.357Z,62.81
2023-03-21T03:12:35.433Z,62.32
2023-03-21T03:15:17.911Z,62.32
2023-03-21T03:17:53.040Z,62.30
2023-03-21T03:20:29.580Z,62.47
2023-03-21T03:23:05.115Z,62.88
2023-03-21T03:25:43.235Z,62.59
2023-03-21T03:28:17.490Z,62.71
2023-03-21T03:31:01.196Z,62.42
2023-03-21T03:33:42.927Z,63.14
2023-03-21T03:36:30.378Z,62.95
2023-03-21T03:39:04.384Z,62.95
2023-03-21T03:42:03.044Z,62.70
2023-03-21T03:44:31.051Z,62.53
2023-03-21T03:47:11.831Z,62.58
2023-03-21T03:49:49.522Z,62.92
2023-03-21T03:52:21.644Z,62.97
2023-03-21T03:54:56.236Z,62.87
2023-03-21T03:57:28.532Z,62.61
2023-03-21T03:59:57.400Z,62.66
2023-03-21T04:02:43.819Z,62.90
2023-03-21T04:05:12.235Z,62.70
2023-03-21T04:07:41.353Z,62.73
2023-03-21T04:10:10.907Z,62.71
2023-03-21T04:12:44.190Z,62.92
2023-03-21T04:15:23.717Z,62.90
2023-03-21T04:17:57.374Z,63.09
2023-03-21T04:20:36.216Z,63.18
2023-03-21T04:23:06.246Z,63.23
2023-03-21T04:25:35.772Z,62.98
2023-03-21T04:28:07.766Z,62.86
2023-03-21T04:30:52.036Z,63.02
2023-03-21T04:33:28.988Z,63.21
2023-03-21T04:35:59.286Z,63.08
2023-03-21T04:38:31.069Z,63.12
2023-03-21T04:41:03.943Z,63.05
2023-03-21T04:43:33.705Z,62.74
2023-03-21T04:46:01.871Z,62.88
2023-03-21T04:48:30.420Z,62.98
2023-03-21T04:51:00.580Z,63.31
2023-03-21T04:53:30.080Z,63.14
2023-03-21T04:55:58.627Z,63.44
2023-03-21T04:58:26.725Z,63.23
2023-03-21T05:00:57.498Z,63.07
2023-03-21T05:03:25.886Z,63.31
2023-03-21T05:05:53.925Z,63.10
2023-03-21T05:08:21.953Z,63.25
2023-03-21T05:10:50.105Z,63.07
2023-03-21T05:13:18.440Z,62.99
2023-03-21T05:15:47.127Z,62.97
2023-03-21T05:18:24.770Z,63.05
2023-03-21T05:21:10.794Z,63.31
2023-03-21T05:23:40.774Z,63.46
2023-03-21T05:26:10.104Z,63.37
2023-03-21T05:28:53.321Z,63.06
2023-03-21T05:31:22.118Z,63.01
2023-03-21T05:33:56.237Z,62.98
2023-03-21T05:36:24.369Z,62.80
2023-03-21T05:38:52.407Z,62.86
2023-03-21T05:41:21.477Z,62.81
2023-03-21T05:43:49.878Z,62.70
2023-03-21T05:46:18.091Z,62.73
2023-03-21T05:48:46.485Z,62.65
2023-03-21T05:51:19.106Z,62.58
2023-03-21T05:53:48.510Z,62.28
2023-03-21T05:56:17.644Z,62.55
2023-03-21T05:58:55.856Z,62.60
2023-03-21T06:01:25.081Z,62.42
2023-03-21T06:04:06.993Z,62.60
2023-03-21T06:06:36.833Z,62.35
2023-03-21T06:09:06.375Z,62.37
2023-03-21T06:11:37.147Z,62.34
2023-03-21T06:14:34.354Z,62.76
2023-03-21T06:17:22.655Z,62.40
2023-03-21T06:19:57.154Z,62.35
2023-03-21T06:22:31.114Z,62.14
2023-03-21T06:24:59.406Z,62.38
2023-03-21T06:27:28.402Z,62.34
2023-03-21T06:29:58.037Z,62.23
2023-03-21T06:32:26.596Z,62.15
2023-03-21T06:35:02.304Z,62.29
2023-03-21T06:37:32.107Z,62.23
2023-03-21T06:40:00.168Z,62.22
2023-03-21T06:42:29.583Z,62.21
2023-03-21T06:45:03.397Z,62.57
2023-03-21T06:47:31.581Z,62.50
2023-03-21T06:50:00.443Z,62.51
2023-03-21T06:52:28.614Z,62.60
2023-03-21T06:54:58.071Z,62.60
2023-03-21T06:57:27.110Z,62.57
2023-03-21T06:59:55.188Z,62.27
2023-03-21T07:02:25.165Z,61.99
2023-03-21T07:05:05.242Z,62.36
2023-03-21T07:07:33.372Z,62.18
2023-03-21T07:10:02.898Z,62.45
2023-03-21T07:12:36.379Z,62.53
2023-03-21T07:15:26.140Z,62.32
2023-03-21T07:17:54.329Z,62.10
2023-03-21T07:20:22.473Z,62.25
2023-03-21T07:22:50.655Z,62.24
2023-03-21T07:25:20.821Z,62.31
2023-03-21T07:27:49.647Z,62.09
2023-03-21T07:30:19.388Z,62.22
2023-03-21T07:32:47.721Z,62.30
2023-03-21T07:35:18.644Z,62.47
2023-03-21T07:37:46.794Z,62.33
2023-03-21T07:40:18.560Z,62.56
2023-03-21T07:42:50.246Z,62.50
2023-03-21T07:45:29.546Z,62.59
2023-03-21T07:47:58.381Z,62.42
2023-03-21T07:50:26.471Z,62.34
2023-03-21T07:52:55.023Z,62.35
2023-03-21T07:55:23.140Z,62.18
2023-03-21T07:57:52.718Z,62.21
2023-03-21T08:00:23.855Z,62.27
2023-03-21T08:02:57.853Z,62.54
2023-03-21T08:05:28.969Z,62.79
2023-03-21T08:07:57.258Z,62.82
2023-03-21T08:10:25.845Z,62.76
2023-03-21T08:12:55.404Z,63.15
2023-03-21T08:15:23.956Z,63.24
2023-03-21T08:17:51.961Z,63.02
2023-03-21T08:20:22.065Z,63.15
2023-03-21T08:22:50.880Z,63.02
2023-03-21T08:25:20.479Z,63.69
2023-03-21T08:27:49.388Z,63.46
2023-03-21T08:30:21.316Z,62.86
2023-03-21T08:32:50.040Z,62.92
2023-03-21T08:35:20.578Z,63.07
2023-03-21T08:37:48.832Z,63.21
2023-03-21T08:40:18.896Z,63.29
2023-03-21T08:42:47.644Z,63.16
2023-03-21T08:45:18.704Z,63.04
2023-03-21T08:47:47.509Z,62.83
2023-03-21T08:50:18.563Z,62.64
2023-03-21T08:52:46.725Z,62.72
2023-03-21T08:55:15.872Z,62.62
2023-03-21T08:57:44.578Z,62.48
2023-03-21T09:00:15.360Z,62.23
2023-03-21T09:02:46.819Z,62.35
2023-03-21T09:05:16.790Z,62.64
2023-03-21T09:07:45.614Z,62.37
2023-03-21T09:10:20.498Z,62.23
2023-03-21T09:12:50.361Z,62.15
2023-03-21T09:15:21.815Z,62.15
2023-03-21T09:17:53.204Z,62.07
2023-03-21T09:20:26.333Z,62.35
2023-03-21T09:22:54.955Z,62.43
2023-03-21T09:25:23.776Z,62.31
2023-03-21T09:27:52.489Z,62.40
2023-03-21T09:30:24.750Z,62.16
2023-03-21T09:32:55.960Z,62.05
2023-03-21T09:35:24.836Z,61.72
2023-03-21T09:37:53.189Z,61.72
2023-03-21T09:40:30.021Z,61.55
2023-03-21T09:43:02.912Z,61.83
2023-03-21T09:45:38.513Z,61.50
2023-03-21T09:48:31.339Z,61.34
2023-03-21T09:50:59.516Z,61.80
2023-03-21T09:53:33.930Z,62.33
2023-03-21T09:56:03.710Z,62.57
2023-03-21T09:58:36.684Z,62.75
2023-03-21T10:01:10.478Z,62.66
2023-03-21T10:03:39.921Z,62.29
2023-03-21T10:06:15.739Z,62.04
2023-03-21T10:08:48.050Z,62.03
2023-03-21T10:11:21.689Z,62.08
2023-03-21T10:13:54.532Z,62.32
2023-03-21T10:16:28.546Z,61.79
2023-03-21T10:19:00.401Z,61.76
2023-03-21T10:22:00.340Z,62.23
2023-03-21T10:24:21.895Z,61.88
2023-03-21T10:26:51.840Z,62.00
2023-03-21T10:29:23.577Z,62.06
2023-03-21T10:31:53.876Z,61.79
2023-03-21T10:34:29.669Z,61.44
2023-03-21T10:36:57.870Z,61.78
2023-03-21T10:39:33.202Z,62.20
2023-03-21T10:42:01.838Z,61.95
2023-03-21T10:44:34.879Z,61.89
2023-03-21T10:47:07.808Z,61.61
2023-03-21T10:50:05.725Z,61.78
2023-03-21T10:52:31.368Z,61.73
2023-03-21T10:55:17.815Z,61.12
2023-03-21T10:57:47.317Z,61.28
2023-03-21T11:00:21.813Z,61.60
2023-03-21T11:02:52.775Z,61.20
2023-03-21T11:05:25.754Z,61.44
2023-03-21T11:08:00.666Z,60.94
2023-03-21T11:10:31.316Z,60.86
2023-03-21T11:13:02.627Z,61.17
2023-03-21T11:15:32.915Z,60.89
2023-03-21T11:18:13.838Z,60.92
2023-03-21T11:20:49.630Z,60.93
2023-03-21T11:23:20.512Z,61.29
2023-03-21T11:25:51.044Z,61.23
2023-03-21T11:28:22.389Z,61.18
2023-03-21T11:30:54.226Z,60.92
2023-03-21T11:33:24.060Z,61.00
2023-03-21T11:36:05.946Z,60.52
2023-03-21T11:38:37.793Z,60.71
2023-03-21T11:41:07.324Z,60.80
2023-03-21T11:43:38.005Z,61.17
2023-03-21T11:46:10.909Z,61.43
2023-03-21T11:48:42.418Z,61.00
2023-03-21T11:51:23.676Z,60.83
2023-03-21T11:54:01.534Z,60.44
2023-03-21T11:56:33.512Z,60.80
2023-03-21T11:59:30.787Z,60.65
2023-03-21T12:02:21.032Z,60.77
2023-03-21T12:04:55.662Z,60.97
2023-03-21T12:07:47.622Z,60.32
2023-03-21T12:10:33.762Z,60.30
2023-03-21T12:13:27.706Z,60.18
2023-03-21T12:16:02.928Z,59.85
2023-03-21T12:18:45.457Z,59.68
2023-03-21T12:21:20.252Z,59.44
2023-03-21T12:24:00.314Z,58.84
2023-03-21T12:26:30.609Z,58.88
2023-03-21T12:29:19.724Z,58.93
2023-03-21T12:32:02.614Z,58.86
2023-03-21T12:34:46.727Z,58.90
2023-03-21T12:37:22.614Z,59.06
2023-03-21T12:39:52.257Z,58.94
2023-03-21T12:42:47.548Z,58.71
2023-03-21T12:45:20.774Z,58.35
2023-03-21T12:47:52.772Z,58.38
2023-03-21T12:50:26.050Z,58.04
2023-03-21T12:52:57.338Z,57.93
2023-03-21T12:55:29.400Z,57.91
2023-03-21T12:58:04.432Z,57.93
2023-03-21T13:00:37.900Z,57.77
2023-03-21T13:03:13.040Z,56.94
2023-03-21T13:05:46.665Z,57.01
2023-03-21T13:08:20.628Z,57.28
2023-03-21T13:10:50.337Z,57.32
2023-03-21T13:13:28.286Z,57.13
2023-03-21T13:16:06.404Z,56.18
2023-03-21T13:18:46.769Z,56.92
2023-03-21T13:21:19.233Z,56.83
2023-03-21T13:24:00.924Z,56.58
2023-03-21T13:26:40.624Z,56.00
2023-03-21T13:29:23.024Z,56.44
2023-03-21T13:31:53.851Z,56.45
2023-03-21T13:34:24.695Z,56.61
2023-03-21T13:36:53.636Z,56.39
2023-03-21T13:39:26.566Z,56.72
2023-03-21T13:41:56.740Z,56.69
2023-03-21T13:44:33.192Z,56.87
2023-03-21T13:47:03.817Z,56.72
2023-03-21T13:49:34.554Z,56.31
2023-03-21T13:52:22.144Z,56.63
2023-03-21T13:54:53.483Z,56.34
2023-03-21T13:57:42.307Z,56.23
2023-03-21T14:00:23.697Z,56.20
2023-03-21T14:02:57.312Z,56.40
2023-03-21T14:05:27.539Z,56.27
2023-03-21T14:08:06.130Z,56.26
2023-03-21T14:10:41.832Z,56.13
2023-03-21T14:13:17.350Z,55.88
2023-03-21T14:15:55.290Z,56.36
2023-03-21T14:18:51.596Z,56.16
2023-03-21T14:21:23.723Z,55.53
2023-03-21T14:24:00.914Z,56.02
2023-03-21T14:26:31.612Z,57.57
2023-03-21T14:29:05.247Z,57.26
2023-03-21T14:31:34.396Z,58.25
2023-03-21T14:34:05.072Z,57.82
2023-03-21T14:36:43.220Z,58.06
2023-03-21T14:39:17.188Z,57.26
2023-03-21T14:41:48.839Z,57.76
2023-03-21T14:44:26.585Z,57.84
2023-03-21T14:47:00.385Z,58.18
2023-03-21T14:49:30.471Z,57.76
2023-03-21T14:52:01.793Z,57.28
2023-03-21T14:54:31.287Z,57.29
2023-03-21T14:57:02.761Z,57.20
2023-03-21T14:59:35.881Z,56.97
2023-03-21T15:02:08.412Z,57.07
2023-03-21T15:04:36.537Z,56.95
2023-03-21T15:07:07.865Z,57.70
2023-03-21T15:09:36.490Z,58.00
2023-03-21T15:12:09.504Z,57.64
2023-03-21T15:14:40.553Z,57.29
2023-03-21T15:17:09.280Z,57.55
2023-03-21T15:19:40.439Z,57.06
2023-03-21T15:22:17.526Z,56.61
2023-03-21T15:24:49.198Z,56.40
2023-03-21T15:27:20.307Z,56.56
2023-03-21T15:29:54.109Z,56.58
2023-03-21T15:32:24.525Z,56.82
2023-03-21T15:34:55.152Z,56.89
2023-03-21T15:37:25.100Z,56.70
2023-03-21T15:39:54.558Z,56.81
2023-03-21T15:42:29.183Z,56.73
2023-03-21T15:45:02.321Z,56.46
2023-03-21T15:47:51.047Z,56.04
2023-03-21T15:50:27.828Z,56.39
2023-03-21T15:52:57.505Z,56.17
2023-03-21T15:55:29.421Z,56.10
2023-03-21T15:58:04.585Z,56.26
2023-03-21T16:00:40.627Z,55.39
2023-03-21T16:03:17.078Z,55.66
2023-03-21T16:06:05.798Z,54.91
2023-03-21T16:08:35.900Z,55.11
2023-03-21T16:11:09.045Z,55.10
2023-03-21T16:13:37.258Z,54.84
2023-03-21T16:16:07.686Z,54.46
2023-03-21T16:18:38.381Z,54.82
2023-03-21T16:21:06.941Z,55.03
2023-03-21T16:23:36.606Z,55.12
2023-03-21T16:26:05.382Z,55.13
2023-03-21T16:28:33.980Z,55.20
2023-03-21T16:31:02.350Z,55.42
2023-03-21T16:33:32.489Z,55.71
2023-03-21T16:36:03.007Z,55.18
2023-03-21T16:38:31.244Z,55.13
2023-03-21T16:41:00.919Z,54.90
2023-03-21T16:43:29.326Z,55.21
2023-03-21T16:45:57.432Z,55.30
2023-03-21T16:48:26.348Z,55.11
2023-03-21T16:50:55.855Z,55.23
2023-03-21T16:53:24.881Z,55.31
2023-03-21T16:55:54.093Z,55.72
2023-03-21T16:58:23.181Z,54.93
2023-03-21T17:00:51.239Z,54.66
2023-03-21T17:03:19.510Z,54.74
2023-03-21T17:05:47.711Z,53.42
2023-03-21T17:08:19.434Z,52.14
2023-03-21T17:10:47.517Z,52.28
2023-03-21T17:13:15.661Z,51.88
2023-03-21T17:15:43.720Z,52.00
2023-03-21T17:18:13.154Z,51.71
2023-03-21T17:20:41.861Z,51.48
2023-03-21T17:23:10.936Z,51.22
2023-03-21T17:25:40.549Z,51.24
2023-03-21T17:28:08.693Z,50.90
2023-03-21T17:30:40.001Z,50.72
2023-03-21T17:33:08.558Z,50.65
2023-03-21T17:35:37.341Z,50.79
2023-03-21T17:38:06.117Z,50.69
2023-03-21T17:40:34.570Z,50.62
2023-03-21T17:43:04.034Z,50.54
2023-03-21T17:45:32.164Z,50.93
2023-03-21T17:48:00.411Z,51.10
2023-03-21T17:50:34.066Z,51.16
2023-03-21T17:53:02.230Z,51.08
2023-03-21T17:55:30.651Z,51.34
2023-03-21T17:57:58.770Z,51.60
2023-03-21T18:00:30.353Z,52.46
2023-03-21T18:02:58.532Z,53.51
2023-03-21T18:05:27.652Z,53.59
2023-03-21T18:08:12.517Z,53.80
2023-03-21T18:10:42.318Z,53.94
2023-03-21T18:13:10.820Z,54.27
2023-03-21T18:15:44.033Z,54.91
2023-03-21T18:18:13.101Z,55.00
2023-03-21T18:20:58.442Z,55.26
2023-03-21T18:23:27.119Z,56.07
2023-03-21T18:25:55.889Z,56.32
2023-03-21T18:28:24.570Z,56.32
2023-03-21T18:31:15.729Z,56.39
2023-03-21T18:33:45.370Z,56.69
2023-03-21T18:36:16.437Z,56.51
2023-03-21T18:38:44.927Z,56.48
2023-03-21T18:41:15.077Z,56.87
2023-03-21T18:46:32.998Z,56.90
2023-03-21T18:49:26.947Z,57.05
2023-03-21T18:51:49.400Z,56.71
2023-03-21T18:54:18.022Z,56.78
2023-03-21T18:59:40.026Z,56.92
2023-03-21T19:02:09.882Z,56.63
2023-03-21T19:04:38.388Z,56.97
2023-03-21T19:07:08.064Z,56.71
2023-03-21T19:10:01.427Z,56.64
2023-03-21T19:12:28.089Z,56.81
2023-03-21T19:14:56.648Z,56.78
2023-03-21T19:18:15.740Z,56.73
2023-03-21T19:20:15.449Z,56.81
2023-03-21T19:22:44.192Z,56.71
2023-03-21T19:25:13.346Z,56.45
2023-03-21T19:27:42.075Z,56.53
2023-03-21T19:30:15.751Z,56.19
2023-03-21T19:32:46.029Z,56.40
2023-03-21T19:35:14.433Z,56.19
2023-03-21T19:37:42.550Z,56.18
2023-03-21T19:40:11.781Z,56.45
2023-03-21T19:42:40.546Z,56.51
2023-03-21T19:45:10.063Z,56.48
2023-03-21T19:47:39.428Z,56.52
2023-03-21T19:52:58.719Z,56.36
2023-03-21T19:55:27.091Z,56.07
2023-03-21T19:57:55.280Z,56.51
2023-03-21T20:00:24.036Z,56.17
2023-03-21T20:02:52.220Z,55.81
2023-03-21T20:05:22.256Z,55.78
2023-03-21T20:07:50.507Z,56.19
2023-03-21T20:10:18.852Z,55.97
2023-03-21T20:12:47.202Z,56.13
2023-03-21T20:15:19.546Z,55.94
2023-03-21T20:17:49.492Z,56.06
2023-03-21T20:20:18.772Z,56.28
2023-03-21T20:23:07.892Z,56.45
2023-03-21T20:25:36.465Z,56.44
2023-03-21T20:28:25.838Z,56.44
2023-03-21T20:30:56.711Z,56.24
2023-03-21T20:33:25.202Z,56.64
2023-03-21T20:36:37.678Z,56.72
2023-03-21T20:38:48.691Z,56.70
2023-03-21T20:41:16.824Z,56.56
2023-03-21T20:46:33.988Z,56.38
2023-03-21T20:49:05.712Z,56.46
2023-03-21T20:54:23.336Z,56.45
2023-03-21T20:56:51.393Z,56.66
2023-03-21T20:59:26.407Z,56.71
2023-03-21T21:01:57.185Z,56.81
2023-03-21T21:04:44.317Z,57.46
2023-03-21T21:07:15.949Z,57.16
2023-03-21T21:09:46.582Z,56.97
2023-03-21T21:12:16.394Z,56.71
2023-03-21T21:14:45.420Z,56.75
2023-03-21T21:20:02.542Z,56.81
2023-03-21T21:22:31.580Z,56.62
2023-03-21T21:25:01.004Z,56.19
2023-03-21T21:27:29.384Z,56.54
2023-03-21T21:29:57.588Z,56.61
2023-03-21T21:32:25.825Z,56.36
2023-03-21T21:34:54.093Z,56.03
2023-03-21T21:37:22.631Z,56.32
2023-03-21T21:39:50.784Z,56.77
2023-03-21T21:42:20.203Z,56.46
2023-03-21T21:44:48.296Z,56.97
2023-03-21T21:47:16.486Z,56.92
2023-03-21T21:49:44.549Z,57.00
2023-03-21T21:52:13.744Z,56.54
2023-03-21T21:54:46.077Z,56.76
2023-03-21T21:57:14.719Z,57.08
2023-03-21T21:59:44.089Z,56.93
2023-03-21T22:02:14.091Z,57.10
2023-03-21T22:04:42.179Z,57.17
2023-03-21T22:07:14.333Z,56.97
2023-03-21T22:09:42.634Z,56.77
2023-03-21T22:12:10.993Z,56.90
2023-03-21T22:14:38.994Z,56.77
2023-03-21T22:17:08.437Z,56.55
2023-03-21T22:19:37.825Z,56.76
2023-03-21T22:22:07.858Z,56.69
2023-03-21T22:24:37.422Z,56.97
2023-03-21T22:27:05.945Z,56.54
2023-03-21T22:29:34.066Z,56.55
2023-03-21T22:32:02.344Z,57.08
2023-03-21T22:34:31.916Z,56.78
2023-03-21T22:37:00.177Z,56.71
2023-03-21T22:39:28.699Z,56.53
2023-03-21T22:42:00.931Z,57.00
2023-03-21T22:44:34.385Z,56.67
2023-03-21T22:47:03.316Z,57.37
2023-03-21T22:49:33.292Z,57.08
2023-03-21T22:52:03.310Z,57.22
2023-03-21T22:54:31.593Z,57.17
2023-03-21T22:57:00.392Z,57.41
2023-03-21T22:59:29.039Z,57.16
2023-03-21T23:01:57.756Z,57.48
2023-03-21T23:04:27.333Z,57.44
2023-03-21T23:06:56.910Z,57.12
2023-03-21T23:09:25.694Z,57.45
2023-03-21T23:11:53.873Z,57.28
2023-03-21T23:14:22.736Z,57.42
2023-03-21T23:16:52.601Z,57.39
2023-03-21T23:19:21.229Z,57.03
2023-03-21T23:21:50.183Z,57.39
2023-03-21T23:24:19.717Z,57.48
2023-03-21T23:26:47.783Z,57.00
2023-03-21T23:29:16.015Z,57.10
2023-03-21T23:31:44.128Z,56.96
2023-03-21T23:34:13.108Z,56.69
2023-03-21T23:36:41.260Z,57.31
2023-03-21T23:39:09.651Z,57.19
2023-03-21T23:41:39.084Z,56.90
2023-03-21T23:44:07.250Z,56.73
2023-03-21T23:46:35.358Z,56.71
2023-03-21T23:49:03.639Z,56.87
2023-03-21T23:51:31.798Z,56.98
2023-03-21T23:53:59.867Z,56.87
2023-03-21T23:56:28.561Z,56.55
2023-03-21T23:58:58.421Z,56.04
